createdAt,value
2023-02-19T00:01:26.740Z,2.47
2023-02-19T00:03:59.179Z,2.30
2023-02-19T00:06:28.467Z,2.70
2023-02-19T00:08:56.415Z,2.53
2023-02-19T00:11:25.725Z,2.57
2023-02-19T00:13:55.480Z,2.73
2023-02-19T00:16:26.300Z,2.72
2023-02-19T00:18:54.112Z,2.57
2023-02-19T00:21:21.166Z,2.40
2023-02-19T00:23:59.172Z,2.10
2023-02-19T00:26:26.104Z,2.80
2023-02-19T00:28:56.059Z,2.70
2023-02-19T00:31:29.522Z,2.38
2023-02-19T00:33:59.489Z,3.33
2023-02-19T00:36:28.156Z,3.03
2023-02-19T00:38:55.392Z,3.07
2023-02-19T00:41:23.462Z,2.70
2023-02-19T00:44:05.646Z,5.57
2023-02-19T00:46:33.892Z,2.77
2023-02-19T00:49:01.300Z,2.77
2023-02-19T00:51:31.267Z,3.10
2023-02-19T00:53:59.723Z,3.88
2023-02-19T00:56:27.159Z,2.93
2023-02-19T00:58:54.182Z,3.27
2023-02-19T01:01:21.012Z,3.47
2023-02-19T01:03:47.831Z,4.13
2023-02-19T01:06:17.202Z,5.93
2023-02-19T01:08:44.260Z,5.75
2023-02-19T01:11:12.555Z,4.13
2023-02-19T01:13:39.557Z,4.30
2023-02-19T01:16:17.096Z,4.73
2023-02-19T01:18:44.570Z,4.07
2023-02-19T01:21:17.577Z,5.00
2023-02-19T01:23:44.914Z,5.63
2023-02-19T01:26:23.511Z,5.90
2023-02-19T01:28:50.236Z,4.90
2023-02-19T01:31:22.697Z,3.43
2023-02-19T01:33:52.465Z,3.53
2023-02-19T01:36:19.406Z,4.30
2023-02-19T01:38:46.881Z,5.23
2023-02-19T01:41:16.930Z,4.00
2023-02-19T01:44:02.022Z,3.20
2023-02-19T01:46:32.911Z,3.00
2023-02-19T01:49:04.495Z,2.93
2023-02-19T01:51:34.355Z,2.77
2023-02-19T01:54:03.745Z,2.67
2023-02-19T01:56:33.642Z,2.90
2023-02-19T01:59:02.135Z,2.22
2023-02-19T02:01:28.813Z,2.20
2023-02-19T02:03:56.734Z,2.33
2023-02-19T02:06:27.996Z,2.60
2023-02-19T02:09:15.373Z,2.50
2023-02-19T02:11:49.525Z,2.87
2023-02-19T02:14:18.408Z,2.93
2023-02-19T02:16:53.289Z,3.20
2023-02-19T02:19:47.652Z,3.27
2023-02-19T02:22:33.231Z,2.87
2023-02-19T02:25:27.395Z,4.47
2023-02-19T02:28:12.760Z,3.37
2023-02-19T02:30:58.338Z,3.10
2023-02-19T02:33:53.480Z,3.00
2023-02-19T02:36:34.459Z,2.83
2023-02-19T02:39:05.377Z,3.50
2023-02-19T02:41:33.401Z,3.50
2023-02-19T02:44:00.123Z,3.67
2023-02-19T02:46:34.836Z,3.50
2023-02-19T02:49:15.168Z,3.20
2023-02-19T02:54:39.676Z,3.70
2023-02-19T02:57:09.453Z,4.37
2023-02-19T02:59:38.728Z,6.00
2023-02-19T03:02:11.521Z,4.72
2023-02-19T03:05:11.819Z,5.60
2023-02-19T03:10:15.686Z,3.70
2023-02-19T03:13:04.115Z,2.90
2023-02-19T03:15:58.220Z,3.43
2023-02-19T03:18:46.442Z,3.03
2023-02-19T03:21:19.377Z,3.53
2023-02-19T03:24:06.816Z,4.63
2023-02-19T03:26:35.287Z,5.13
2023-02-19T03:29:22.347Z,4.77
2023-02-19T03:31:55.010Z,5.73
2023-02-19T03:34:28.900Z,7.53
2023-02-19T03:37:09.092Z,4.00
2023-02-19T03:42:26.190Z,4.20
2023-02-19T03:45:17.721Z,3.27
2023-02-19T03:48:15.183Z,3.50
2023-02-19T03:51:18.226Z,3.67
2023-02-19T03:54:02.473Z,3.30
2023-02-19T03:56:36.752Z,3.83
2023-02-19T03:59:32.438Z,3.27
2023-02-19T04:02:06.178Z,3.70
2023-02-19T04:04:48.992Z,3.57
2023-02-19T04:07:15.821Z,4.00
2023-02-19T04:09:49.632Z,4.03
2023-02-19T04:12:19.150Z,3.70
2023-02-19T04:14:53.055Z,3.80
2023-02-19T04:17:25.365Z,3.93
2023-02-19T04:19:53.676Z,3.73
2023-02-19T04:22:22.772Z,4.00
2023-02-19T04:24:53.490Z,4.47
2023-02-19T04:27:20.431Z,3.83
2023-02-19T04:29:48.234Z,4.13
2023-02-19T04:32:15.136Z,4.20
2023-02-19T04:34:41.758Z,4.17
2023-02-19T04:37:08.583Z,4.30
2023-02-19T04:39:35.307Z,3.70
2023-02-19T04:42:02.031Z,4.00
2023-02-19T04:44:28.681Z,4.43
2023-02-19T04:46:55.597Z,4.47
2023-02-19T04:49:22.175Z,4.37
2023-02-19T04:51:48.891Z,4.10
2023-02-19T04:54:15.458Z,4.90
2023-02-19T04:56:42.209Z,5.83
2023-02-19T04:59:08.846Z,4.63
2023-02-19T05:01:35.672Z,4.30
2023-02-19T05:04:02.447Z,4.10
2023-02-19T05:06:29.212Z,3.70
2023-02-19T05:08:55.755Z,4.30
2023-02-19T05:11:23.919Z,3.93
2023-02-19T05:13:51.609Z,4.97
2023-02-19T05:16:18.921Z,3.73
2023-02-19T05:18:46.872Z,3.87
2023-02-19T05:21:14.901Z,3.77
2023-02-19T05:23:42.499Z,3.30
2023-02-19T05:26:18.018Z,3.70
2023-02-19T05:28:46.051Z,3.97
2023-02-19T05:31:14.047Z,3.37
2023-02-19T05:33:43.159Z,4.17
2023-02-19T05:36:13.107Z,4.77
2023-02-19T05:38:41.041Z,4.63
2023-02-19T05:41:16.135Z,4.43
2023-02-19T05:43:44.973Z,3.40
2023-02-19T05:46:15.489Z,3.43
2023-02-19T05:48:42.433Z,3.40
2023-02-19T05:51:13.158Z,3.70
2023-02-19T05:53:47.670Z,4.23
2023-02-19T05:56:26.248Z,4.67
2023-02-19T05:58:54.006Z,4.73
2023-02-19T06:01:22.846Z,10.33
2023-02-19T06:03:49.540Z,10.53
2023-02-19T06:06:18.098Z,10.10
2023-02-19T06:08:44.744Z,8.47
2023-02-19T06:11:11.779Z,7.13
2023-02-19T06:13:38.679Z,5.40
2023-02-19T06:16:06.924Z,5.30
2023-02-19T06:18:33.889Z,7.30
2023-02-19T06:21:05.594Z,5.17
2023-02-19T06:23:32.359Z,5.47
2023-02-19T06:26:07.199Z,5.13
2023-02-19T06:28:33.970Z,9.63
2023-02-19T06:31:00.604Z,6.00
2023-02-19T06:33:28.224Z,4.93
2023-02-19T06:35:57.454Z,6.87
2023-02-19T06:38:24.161Z,12.30
2023-02-19T06:40:50.769Z,10.43
2023-02-19T06:43:17.509Z,7.97
2023-02-19T06:45:44.181Z,7.30
2023-02-19T06:48:11.028Z,9.07
2023-02-19T06:50:37.623Z,6.87
2023-02-19T06:53:04.536Z,6.97
2023-02-19T06:55:31.068Z,6.77
2023-02-19T06:57:57.914Z,6.80
2023-02-19T07:00:24.524Z,7.70
2023-02-19T07:02:56.588Z,6.73
2023-02-19T07:05:48.387Z,6.17
2023-02-19T07:08:17.423Z,6.00
2023-02-19T07:10:44.940Z,6.10
2023-02-19T07:13:11.966Z,5.67
2023-02-19T07:15:38.777Z,7.33
2023-02-19T07:18:07.658Z,7.40
2023-02-19T07:20:34.181Z,8.50
2023-02-19T07:23:00.753Z,7.13
2023-02-19T07:25:27.299Z,6.60
2023-02-19T07:27:53.938Z,6.87
2023-02-19T07:30:20.624Z,7.23
2023-02-19T07:32:47.219Z,7.00
2023-02-19T07:35:14.582Z,7.70
2023-02-19T07:37:41.761Z,6.57
2023-02-19T07:40:08.547Z,7.23
2023-02-19T07:42:35.200Z,6.53
2023-02-19T07:45:01.955Z,5.90
2023-02-19T07:47:29.876Z,6.43
2023-02-19T07:49:56.584Z,6.23
2023-02-19T07:52:23.379Z,8.27
2023-02-19T07:54:50.455Z,7.70
2023-02-19T07:57:17.162Z,6.53
2023-02-19T07:59:43.819Z,6.57
2023-02-19T08:02:36.376Z,5.60
2023-02-19T08:05:03.994Z,5.07
2023-02-19T08:07:36.948Z,5.33
2023-02-19T08:10:23.126Z,5.40
2023-02-19T08:13:18.242Z,6.17
2023-02-19T08:15:51.213Z,6.50
2023-02-19T08:18:20.166Z,5.60
2023-02-19T08:20:47.235Z,6.07
2023-02-19T08:23:14.072Z,4.13
2023-02-19T08:25:41.420Z,5.40
2023-02-19T08:28:09.909Z,10.40
2023-02-19T08:30:38.597Z,8.07
2023-02-19T08:33:07.589Z,6.47
2023-02-19T08:35:36.688Z,6.00
2023-02-19T08:38:04.530Z,5.55
2023-02-19T08:40:31.889Z,4.50
2023-02-19T08:43:10.651Z,3.90
2023-02-19T08:45:38.757Z,3.10
2023-02-19T08:48:07.295Z,2.97
2023-02-19T08:50:34.879Z,2.87
2023-02-19T08:53:02.364Z,3.03
2023-02-19T08:55:29.241Z,2.90
2023-02-19T08:57:56.003Z,3.33
2023-02-19T09:00:22.691Z,2.03
2023-02-19T09:02:49.808Z,2.50
2023-02-19T09:05:17.104Z,2.03
2023-02-19T09:07:43.959Z,2.63
2023-02-19T09:10:13.353Z,2.03
2023-02-19T09:12:40.652Z,2.30
2023-02-19T09:15:07.688Z,1.87
2023-02-19T09:17:34.320Z,1.80
2023-02-19T09:20:18.242Z,3.67
2023-02-19T09:22:44.917Z,1.87
2023-02-19T09:25:13.962Z,1.77
2023-02-19T09:27:40.667Z,2.47
2023-02-19T09:30:07.904Z,1.50
2023-02-19T09:32:34.512Z,1.53
2023-02-19T09:35:02.220Z,2.67
2023-02-19T09:37:28.850Z,2.83
2023-02-19T09:39:55.833Z,11.53
2023-02-19T09:42:29.956Z,10.37
2023-02-19T09:44:59.208Z,9.83
2023-02-19T09:47:30.322Z,8.38
2023-02-19T09:50:06.582Z,5.13
2023-02-19T09:52:49.870Z,5.97
2023-02-19T09:55:33.023Z,5.43
2023-02-19T09:58:06.558Z,10.17
2023-02-19T10:00:35.977Z,3.50
2023-02-19T10:03:11.336Z,1.95
2023-02-19T10:05:40.077Z,2.40
2023-02-19T10:08:15.427Z,2.60
2023-02-19T10:10:44.110Z,8.50
2023-02-19T10:13:23.567Z,9.23
2023-02-19T10:15:53.297Z,3.20
2023-02-19T10:18:28.359Z,3.20
2023-02-19T10:20:57.026Z,4.10
2023-02-19T10:23:25.319Z,3.67
2023-02-19T10:26:00.245Z,3.07
2023-02-19T10:28:33.814Z,3.60
2023-02-19T10:31:04.066Z,4.13
2023-02-19T10:36:07.485Z,3.70
2023-02-19T10:38:38.095Z,4.10
2023-02-19T10:41:26.273Z,3.30
2023-02-19T10:43:52.764Z,9.40
2023-02-19T10:46:23.600Z,4.53
2023-02-19T10:49:03.873Z,2.63
2023-02-19T10:51:41.154Z,3.13
2023-02-19T10:54:30.285Z,3.37
2023-02-19T10:57:15.125Z,3.87
2023-02-19T10:59:57.812Z,2.90
2023-02-19T11:02:25.894Z,2.47
2023-02-19T11:05:02.887Z,2.97
2023-02-19T11:07:30.252Z,2.30
2023-02-19T11:09:58.447Z,2.20
2023-02-19T11:12:28.418Z,2.17
2023-02-19T11:14:55.495Z,2.67
2023-02-19T11:17:30.534Z,5.27
2023-02-19T11:20:00.759Z,16.40
2023-02-19T11:22:38.150Z,9.05
2023-02-19T11:28:09.671Z,3.03
2023-02-19T11:30:45.028Z,3.03
2023-02-19T11:33:17.811Z,3.30
2023-02-19T11:35:45.001Z,2.30
2023-02-19T11:38:19.736Z,3.17
2023-02-19T11:41:06.132Z,3.37
2023-02-19T11:43:43.138Z,2.83
2023-02-19T11:46:43.961Z,4.83
2023-02-19T11:49:40.347Z,5.47
2023-02-19T11:52:34.869Z,7.17
2023-02-19T11:55:22.613Z,3.10
2023-02-19T11:58:16.639Z,4.53
2023-02-19T12:01:06.733Z,4.10
2023-02-19T12:03:54.456Z,4.90
2023-02-19T12:06:30.627Z,5.40
2023-02-19T12:09:21.692Z,4.23
2023-02-19T12:12:14.136Z,2.93
2023-02-19T12:15:00.581Z,3.63
2023-02-19T12:17:42.511Z,3.47
2023-02-19T12:20:36.278Z,3.30
2023-02-19T12:23:02.769Z,2.30
2023-02-19T12:25:49.966Z,3.00
2023-02-19T12:29:06.013Z,2.53
2023-02-19T12:31:50.484Z,2.23
2023-02-19T12:34:30.271Z,2.83
2023-02-19T12:37:17.991Z,3.33
2023-02-19T12:40:02.096Z,2.43
2023-02-19T12:43:04.092Z,3.47
2023-02-19T12:45:37.777Z,2.70
2023-02-19T12:48:13.416Z,4.87
2023-02-19T12:50:40.842Z,3.03
2023-02-19T12:53:25.544Z,4.43
2023-02-19T12:55:53.983Z,3.53
2023-02-19T12:58:35.347Z,4.93
2023-02-19T13:01:03.995Z,3.83
2023-02-19T13:03:39.396Z,5.10
2023-02-19T13:06:23.782Z,5.87
2023-02-19T13:09:06.487Z,10.63
2023-02-19T13:11:54.800Z,6.70
2023-02-19T13:14:57.236Z,10.80
2023-02-19T13:17:46.124Z,4.83
2023-02-19T13:20:33.712Z,2.93
2023-02-19T13:23:40.365Z,2.83
2023-02-19T13:26:29.835Z,5.80
2023-02-19T13:29:04.233Z,3.22
2023-02-19T13:31:49.005Z,4.30
2023-02-19T13:34:44.148Z,4.37
2023-02-19T13:37:11.821Z,4.40
2023-02-19T13:39:48.706Z,3.70
2023-02-19T13:42:26.180Z,5.63
2023-02-19T13:44:57.732Z,3.93
2023-02-19T13:47:49.174Z,3.67
2023-02-19T13:50:25.123Z,4.97
2023-02-19T13:53:25.485Z,3.77
2023-02-19T13:59:17.068Z,2.83
2023-02-19T14:01:50.352Z,2.37
2023-02-19T14:04:32.165Z,2.20
2023-02-19T14:07:04.965Z,2.60
2023-02-19T14:09:34.523Z,2.60
2023-02-19T14:12:10.481Z,3.00
2023-02-19T14:14:38.188Z,2.60
2023-02-19T14:17:12.563Z,2.50
2023-02-19T14:19:41.848Z,2.70
2023-02-19T14:22:57.772Z,3.17
2023-02-19T14:25:27.080Z,2.60
2023-02-19T14:27:57.483Z,2.50
2023-02-19T14:33:02.772Z,4.53
2023-02-19T14:35:41.364Z,4.87
2023-02-19T14:38:18.199Z,4.40
2023-02-19T14:40:46.842Z,4.40
2023-02-19T14:43:19.648Z,3.90
2023-02-19T14:46:18.608Z,6.57
2023-02-19T14:48:48.024Z,5.43
2023-02-19T14:51:24.797Z,3.15
2023-02-19T14:53:53.455Z,3.83
2023-02-19T14:56:27.562Z,3.50
2023-02-19T14:59:34.885Z,4.33
2023-02-19T15:02:04.440Z,4.50
2023-02-19T15:04:36.829Z,3.70
2023-02-19T15:07:07.940Z,3.77
2023-02-19T15:09:42.757Z,5.27
2023-02-19T15:12:16.120Z,3.63
2023-02-19T15:14:44.335Z,3.73
2023-02-19T15:17:16.651Z,4.83
2023-02-19T15:19:44.051Z,3.87
2023-02-19T15:22:21.060Z,3.63
2023-02-19T15:24:48.742Z,3.63
2023-02-19T15:27:25.220Z,4.00
2023-02-19T15:29:53.850Z,4.53
2023-02-19T15:32:26.771Z,3.93
2023-02-19T15:35:01.992Z,3.50
2023-02-19T15:37:33.848Z,3.60
2023-02-19T15:40:05.724Z,4.07
2023-02-19T15:42:35.059Z,3.80
2023-02-19T15:45:20.321Z,3.90
2023-02-19T15:48:01.471Z,5.57
2023-02-19T15:50:34.251Z,5.17
2023-02-19T15:53:16.978Z,3.83
2023-02-19T15:56:11.912Z,4.90
2023-02-19T15:58:43.534Z,13.50
2023-02-19T16:01:26.581Z,10.73
2023-02-19T16:03:54.297Z,7.17
2023-02-19T16:06:23.064Z,6.20
2023-02-19T16:09:05.798Z,7.03
2023-02-19T16:11:38.563Z,9.90
2023-02-19T16:14:30.959Z,7.27
2023-02-19T16:17:18.262Z,5.87
2023-02-19T16:19:54.101Z,5.03
2023-02-19T16:22:26.656Z,5.63
2023-02-19T16:25:03.974Z,8.00
2023-02-19T16:27:32.386Z,7.23
2023-02-19T16:30:01.830Z,5.17
2023-02-19T16:32:28.573Z,8.50
2023-02-19T16:34:55.348Z,9.23
2023-02-19T16:37:40.671Z,5.93
2023-02-19T16:40:07.544Z,5.97
2023-02-19T16:42:50.713Z,8.87
2023-02-19T16:45:18.055Z,8.47
2023-02-19T16:47:48.509Z,6.73
2023-02-19T16:53:00.341Z,7.73
2023-02-19T16:55:28.273Z,7.27
2023-02-19T16:57:56.394Z,9.77
2023-02-19T17:00:25.983Z,10.23
2023-02-19T17:03:02.608Z,7.45
2023-02-19T17:05:32.418Z,7.47
2023-02-19T17:08:00.542Z,6.38
2023-02-19T17:10:28.019Z,7.27
2023-02-19T17:12:55.556Z,7.77
2023-02-19T17:15:22.967Z,9.43
2023-02-19T17:17:49.601Z,13.97
2023-02-19T17:20:16.366Z,11.70
2023-02-19T17:22:44.052Z,8.40
2023-02-19T17:25:11.183Z,11.90
2023-02-19T17:27:37.851Z,12.93
2023-02-19T17:30:15.376Z,41.17
2023-02-19T17:32:42.087Z,22.43
2023-02-19T17:35:08.694Z,22.37
2023-02-19T17:37:35.434Z,18.07
2023-02-19T17:40:04.774Z,13.67
2023-02-19T17:42:31.381Z,14.27
2023-02-19T17:44:57.884Z,12.97
2023-02-19T17:47:24.610Z,13.80
2023-02-19T17:49:51.247Z,10.73
2023-02-19T17:52:19.600Z,12.53
2023-02-19T17:54:46.561Z,10.80
2023-02-19T17:57:13.143Z,16.27
2023-02-19T17:59:39.699Z,16.40
2023-02-19T18:02:06.551Z,29.30
2023-02-19T18:04:36.218Z,22.33
2023-02-19T18:07:04.356Z,28.10
2023-02-19T18:09:32.086Z,18.30
2023-02-19T18:11:58.830Z,28.27
2023-02-19T18:14:25.535Z,37.60
2023-02-19T18:16:52.383Z,23.70
2023-02-19T18:19:19.236Z,18.90
2023-02-19T18:21:47.054Z,28.53
2023-02-19T18:24:37.407Z,22.83
2023-02-19T18:27:06.558Z,22.77
2023-02-19T18:29:35.049Z,24.27
2023-02-19T18:32:02.085Z,18.63
2023-02-19T18:34:28.970Z,19.00
2023-02-19T18:36:55.817Z,20.50
2023-02-19T18:39:22.640Z,29.80
2023-02-19T18:41:50.725Z,24.57
2023-02-19T18:44:21.258Z,19.53
2023-02-19T18:49:18.026Z,24.08
2023-02-19T18:51:45.667Z,14.03
2023-02-19T18:54:12.509Z,15.20
2023-02-19T18:56:44.227Z,16.00
2023-02-19T18:59:12.124Z,13.57
2023-02-19T19:01:39.364Z,10.70
2023-02-19T19:04:06.762Z,9.43
2023-02-19T19:06:35.832Z,8.63
2023-02-19T19:09:04.348Z,9.40
2023-02-19T19:11:31.264Z,10.47
2023-02-19T19:13:58.114Z,11.07
2023-02-19T19:16:29.245Z,10.03
2023-02-19T19:18:56.942Z,21.87
2023-02-19T19:21:23.829Z,21.70
2023-02-19T19:23:53.280Z,14.23
2023-02-19T19:26:19.939Z,12.47
2023-02-19T19:28:46.680Z,11.73
2023-02-19T19:31:18.799Z,9.90
2023-02-19T19:33:47.152Z,11.00
2023-02-19T19:36:15.408Z,10.07
2023-02-19T19:38:41.950Z,7.77
2023-02-19T19:41:08.552Z,8.77
2023-02-19T19:43:35.146Z,9.33
2023-02-19T19:46:03.973Z,9.10
2023-02-19T19:48:30.695Z,11.57
2023-02-19T19:50:57.373Z,12.37
2023-02-19T19:53:24.646Z,12.67
2023-02-19T19:55:51.959Z,17.53
2023-02-19T19:58:22.790Z,21.07
2023-02-19T20:00:52.182Z,14.43
2023-02-19T20:03:19.776Z,11.17
2023-02-19T20:05:50.371Z,8.67
2023-02-19T20:10:45.441Z,10.17
2023-02-19T20:13:16.605Z,8.03
2023-02-19T20:15:43.432Z,8.53
2023-02-19T20:18:10.244Z,9.27
2023-02-19T20:20:38.395Z,9.93
2023-02-19T20:23:05.077Z,8.80
2023-02-19T20:25:31.708Z,7.40
2023-02-19T20:27:58.621Z,8.67
2023-02-19T20:30:25.618Z,9.13
2023-02-19T20:32:53.895Z,7.53
2023-02-19T20:35:21.093Z,13.37
2023-02-19T20:37:50.643Z,10.23
2023-02-19T20:40:18.652Z,7.60
2023-02-19T20:42:46.211Z,12.20
2023-02-19T20:45:14.466Z,6.90
2023-02-19T20:47:41.076Z,6.00
2023-02-19T20:50:08.391Z,7.43
2023-02-19T20:52:35.085Z,8.87
2023-02-19T20:55:01.803Z,9.20
2023-02-19T20:57:28.417Z,7.30
2023-02-19T20:59:54.995Z,8.93
2023-02-19T21:02:27.968Z,8.47
2023-02-19T21:04:56.765Z,13.13
2023-02-19T21:07:25.459Z,13.00
2023-02-19T21:09:52.687Z,12.23
2023-02-19T21:12:20.512Z,12.50
2023-02-19T21:14:47.507Z,32.07
2023-02-19T21:17:14.408Z,14.87
2023-02-19T21:19:41.148Z,12.80
2023-02-19T21:22:08.006Z,11.33
2023-02-19T21:24:34.564Z,12.43
2023-02-19T21:27:02.362Z,12.60
2023-02-19T21:29:29.047Z,12.47
2023-02-19T21:31:57.095Z,7.73
2023-02-19T21:34:27.337Z,8.30
2023-02-19T21:36:54.777Z,10.68
2023-02-19T21:39:22.979Z,9.80
2023-02-19T21:41:49.946Z,9.87
2023-02-19T21:44:17.610Z,8.47
2023-02-19T21:46:44.318Z,12.57
2023-02-19T21:49:11.736Z,11.30
2023-02-19T21:51:41.149Z,8.73
2023-02-19T21:54:08.962Z,9.43
2023-02-19T21:56:36.856Z,9.83
2023-02-19T21:59:03.764Z,12.00
2023-02-19T22:01:33.008Z,12.23
2023-02-19T22:03:59.997Z,9.80
2023-02-19T22:06:29.235Z,10.50
2023-02-19T22:08:56.527Z,10.17
2023-02-19T22:11:23.178Z,11.33
2023-02-19T22:13:50.388Z,8.10
2023-02-19T22:16:18.129Z,30.27
2023-02-19T22:18:53.033Z,14.17
2023-02-19T22:21:21.333Z,11.53
2023-02-19T22:23:49.619Z,12.83
2023-02-19T22:26:25.838Z,12.30
2023-02-19T22:28:52.928Z,15.13
2023-02-19T22:31:22.567Z,15.40
2023-02-19T22:33:49.697Z,16.60
2023-02-19T22:36:18.503Z,16.97
2023-02-19T22:38:45.589Z,17.73
2023-02-19T22:41:15.116Z,14.67
2023-02-19T22:43:41.846Z,18.73
2023-02-19T22:46:12.737Z,16.47
2023-02-19T22:48:40.920Z,12.00
2023-02-19T22:51:14.942Z,13.97
2023-02-19T22:53:56.467Z,10.27
2023-02-19T22:56:26.021Z,14.33
2023-02-19T22:58:53.464Z,10.90
2023-02-19T23:01:20.681Z,11.37
2023-02-19T23:03:58.453Z,15.03
2023-02-19T23:06:26.474Z,10.43
2023-02-19T23:08:55.235Z,12.47
2023-02-19T23:11:24.756Z,12.30
2023-02-19T23:13:51.480Z,11.60
2023-02-19T23:16:18.250Z,9.97
2023-02-19T23:18:45.088Z,9.77
2023-02-19T23:21:12.183Z,11.73
2023-02-19T23:23:44.965Z,11.60
2023-02-19T23:26:13.374Z,10.13
2023-02-19T23:28:41.375Z,10.40
2023-02-19T23:31:08.316Z,16.67
2023-02-19T23:33:35.448Z,13.47
2023-02-19T23:36:02.173Z,10.10
2023-02-19T23:38:28.870Z,10.97
2023-02-19T23:40:55.443Z,12.97
2023-02-19T23:43:22.072Z,11.30
2023-02-19T23:45:48.831Z,13.20
2023-02-19T23:48:15.588Z,15.40
2023-02-19T23:50:42.256Z,12.70
2023-02-19T23:53:09.147Z,11.87
2023-02-19T23:55:35.870Z,14.33
2023-02-19T23:58:02.573Z,13.07
